createdAt,value
2022-10-19T00:02:39.971Z,45.60
2022-10-19T00:08:00.290Z,45.50
2022-10-19T00:13:20.444Z,45.40
2022-10-19T00:18:40.703Z,45.50
2022-10-19T00:24:00.789Z,45.50
2022-10-19T00:29:20.988Z,45.50
2022-10-19T00:34:41.143Z,45.50
2022-10-19T00:40:01.258Z,45.50
2022-10-19T00:45:21.868Z,45.50
2022-10-19T00:50:42.071Z,45.50
2022-10-19T00:56:02.254Z,45.50
2022-10-19T01:01:22.594Z,45.50
2022-10-19T01:06:42.654Z,45.50
2022-10-19T01:12:02.829Z,45.50
2022-10-19T01:17:23.049Z,45.50
2022-10-19T01:22:43.225Z,45.40
2022-10-19T01:28:03.400Z,45.40
2022-10-19T01:33:23.613Z,45.30
2022-10-19T01:38:43.690Z,45.30
2022-10-19T01:44:03.837Z,45.30
2022-10-19T01:49:23.894Z,45.40
2022-10-19T01:54:44.048Z,45.30
2022-10-19T02:00:04.128Z,45.30
2022-10-19T02:05:24.147Z,45.30
2022-10-19T02:10:44.263Z,45.30
2022-10-19T02:16:04.414Z,45.30
2022-10-19T02:21:24.514Z,45.20
2022-10-19T02:26:44.579Z,45.30
2022-10-19T02:32:04.665Z,45.30
2022-10-19T02:37:25.591Z,45.30
2022-10-19T02:42:45.880Z,45.30
2022-10-19T02:48:05.963Z,45.20
2022-10-19T02:53:26.072Z,45.20
2022-10-19T02:58:46.172Z,45.20
2022-10-19T03:04:06.354Z,45.10
2022-10-19T03:09:26.390Z,45.10
2022-10-19T03:14:46.380Z,45.20
2022-10-19T03:20:06.461Z,45.20
2022-10-19T03:25:26.680Z,45.20
2022-10-19T03:30:46.839Z,45.20
2022-10-19T03:36:07.123Z,45.20
2022-10-19T03:41:27.164Z,45.70
2022-10-19T03:46:47.244Z,45.10
2022-10-19T03:52:07.260Z,45.10
2022-10-19T03:57:27.365Z,45.10
2022-10-19T04:02:47.401Z,45.10
2022-10-19T04:08:07.540Z,45.10
2022-10-19T04:13:27.643Z,45.00
2022-10-19T04:18:47.889Z,44.90
2022-10-19T04:24:07.966Z,44.90
2022-10-19T04:29:30.211Z,44.90
2022-10-19T04:34:50.768Z,44.90
2022-10-19T04:40:14.902Z,44.90
2022-10-19T04:45:35.506Z,44.80
2022-10-19T04:50:55.655Z,44.80
2022-10-19T04:56:15.870Z,44.80
2022-10-19T05:01:36.023Z,44.80
2022-10-19T05:06:56.219Z,44.80
2022-10-19T05:12:16.356Z,44.80
2022-10-19T05:17:36.909Z,44.80
2022-10-19T05:22:57.145Z,44.80
2022-10-19T05:28:17.352Z,44.80
2022-10-19T05:33:38.044Z,44.80
2022-10-19T05:38:58.247Z,44.70
2022-10-19T05:44:18.240Z,44.60
2022-10-19T05:49:38.395Z,44.60
2022-10-19T05:54:58.489Z,44.60
2022-10-19T06:00:18.747Z,44.50
2022-10-19T06:05:38.964Z,44.50
2022-10-19T06:10:59.030Z,44.60
2022-10-19T06:16:19.253Z,44.50
2022-10-19T06:21:41.913Z,44.50
2022-10-19T06:27:05.047Z,44.40
2022-10-19T06:32:25.239Z,44.40
2022-10-19T06:37:45.225Z,44.40
2022-10-19T06:43:05.509Z,44.40
2022-10-19T06:48:25.594Z,44.40
2022-10-19T06:53:45.671Z,44.60
2022-10-19T06:59:05.834Z,45.10
2022-10-19T07:04:25.976Z,45.00
2022-10-19T07:09:46.016Z,44.90
2022-10-19T07:15:06.215Z,44.70
2022-10-19T07:20:26.316Z,44.70
2022-10-19T07:25:46.547Z,44.80
2022-10-19T07:31:06.747Z,44.60
2022-10-19T07:36:27.023Z,44.90
2022-10-19T07:41:47.126Z,44.60
2022-10-19T07:47:07.336Z,44.40
2022-10-19T07:52:27.508Z,44.60
2022-10-19T07:57:47.693Z,44.60
2022-10-19T08:03:43.783Z,44.70
2022-10-19T08:08:49.755Z,44.70
2022-10-19T08:14:09.989Z,44.60
2022-10-19T08:19:30.125Z,44.30
2022-10-19T08:24:50.299Z,44.00
2022-10-19T08:30:10.470Z,44.00
2022-10-19T08:35:30.735Z,43.80
2022-10-19T08:40:50.855Z,43.30
2022-10-19T08:46:10.956Z,43.50
2022-10-19T08:51:31.094Z,43.80
2022-10-19T08:56:52.082Z,44.10
2022-10-19T09:02:12.161Z,44.10
2022-10-19T09:07:32.322Z,43.80
2022-10-19T09:12:55.047Z,43.90
2022-10-19T09:18:17.899Z,44.00
2022-10-19T09:23:38.006Z,44.20
2022-10-19T09:28:58.292Z,44.20
2022-10-19T09:34:18.328Z,44.30
2022-10-19T09:39:39.570Z,44.40
2022-10-19T09:45:00.534Z,44.10
2022-10-19T09:50:20.695Z,43.80
2022-10-19T09:55:40.806Z,43.70
2022-10-19T10:01:00.872Z,44.00
2022-10-19T10:06:21.124Z,44.10
2022-10-19T10:11:41.384Z,44.20
2022-10-19T10:17:01.470Z,44.00
2022-10-19T10:22:21.617Z,44.00
2022-10-19T10:27:41.698Z,43.90
2022-10-19T10:33:09.355Z,44.00
2022-10-19T10:38:35.520Z,42.80
2022-10-19T10:43:57.482Z,42.00
2022-10-19T10:49:19.840Z,40.80
2022-10-19T10:54:40.007Z,40.80
2022-10-19T11:00:00.092Z,40.60
2022-10-19T11:05:20.348Z,40.60
2022-10-19T11:10:40.496Z,41.40
2022-10-19T11:16:00.684Z,41.90
2022-10-19T11:21:20.657Z,42.30
2022-10-19T11:26:40.844Z,42.50
2022-10-19T11:32:00.880Z,42.60
2022-10-19T11:37:21.185Z,42.80
2022-10-19T11:42:41.357Z,42.90
2022-10-19T11:48:01.402Z,42.90
2022-10-19T11:53:21.464Z,42.90
2022-10-19T11:58:41.587Z,42.90
2022-10-19T12:04:01.619Z,43.00
2022-10-19T12:09:21.933Z,43.00
2022-10-19T12:14:41.960Z,42.90
2022-10-19T12:20:02.144Z,42.80
2022-10-19T12:25:22.219Z,42.90
2022-10-19T12:30:42.487Z,43.00
2022-10-19T12:36:02.610Z,43.00
2022-10-19T12:41:22.873Z,43.10
2022-10-19T12:46:42.978Z,43.10
2022-10-19T12:52:03.306Z,43.10
2022-10-19T12:57:23.502Z,43.00
2022-10-19T13:02:43.908Z,43.00
2022-10-19T13:08:03.833Z,43.00
2022-10-19T13:13:24.011Z,43.00
2022-10-19T13:18:44.125Z,43.00
2022-10-19T13:24:04.512Z,43.00
2022-10-19T13:29:24.516Z,43.00
2022-10-19T13:34:44.698Z,43.00
2022-10-19T13:40:04.803Z,43.00
2022-10-19T13:45:24.878Z,43.00
2022-10-19T13:50:45.099Z,43.00
2022-10-19T13:56:05.411Z,43.00
2022-10-19T14:01:25.446Z,42.90
2022-10-19T14:06:45.704Z,43.00
2022-10-19T14:12:05.892Z,42.90
2022-10-19T14:17:26.086Z,43.20
2022-10-19T14:22:46.276Z,43.10
2022-10-19T14:28:06.441Z,43.20
2022-10-19T14:33:26.619Z,43.20
2022-10-19T14:38:46.819Z,43.10
2022-10-19T14:44:07.059Z,43.40
2022-10-19T14:49:27.374Z,43.40
2022-10-19T14:54:47.480Z,43.40
2022-10-19T15:00:07.669Z,43.40
2022-10-19T15:05:27.851Z,43.40
2022-10-19T15:10:48.022Z,43.40
2022-10-19T15:16:08.142Z,43.30
2022-10-19T15:21:29.456Z,43.00
2022-10-19T15:26:57.894Z,44.00
2022-10-19T15:32:28.848Z,44.90
2022-10-19T15:37:48.856Z,44.00
2022-10-19T15:43:09.173Z,43.80
2022-10-19T15:48:29.263Z,43.70
2022-10-19T15:53:49.439Z,43.70
2022-10-19T15:59:09.639Z,43.60
2022-10-19T16:04:29.756Z,43.70
2022-10-19T16:09:49.758Z,43.80
2022-10-19T16:15:09.898Z,43.90
2022-10-19T16:20:30.028Z,44.10
2022-10-19T16:25:50.393Z,43.50
2022-10-19T16:31:10.540Z,43.10
2022-10-19T16:36:30.915Z,42.90
2022-10-19T16:41:50.921Z,43.60
2022-10-19T16:47:11.059Z,44.20
2022-10-19T16:52:31.257Z,43.60
2022-10-19T16:57:51.482Z,42.20
2022-10-19T17:03:11.612Z,41.70
2022-10-19T17:08:36.831Z,41.80
2022-10-19T17:14:04.473Z,41.70
2022-10-19T17:19:24.599Z,41.60
2022-10-19T17:24:44.814Z,41.70
2022-10-19T17:30:04.879Z,41.70
2022-10-19T17:35:24.994Z,41.40
2022-10-19T17:40:45.178Z,41.20
2022-10-19T17:46:05.588Z,41.10
2022-10-19T17:51:25.704Z,41.10
2022-10-19T17:56:45.918Z,41.00
2022-10-19T18:02:06.096Z,40.90
2022-10-19T18:07:26.279Z,40.90
2022-10-19T18:12:46.404Z,40.80
2022-10-19T18:18:06.682Z,40.90
2022-10-19T18:23:26.756Z,40.80
2022-10-19T18:28:47.384Z,40.90
2022-10-19T18:34:07.550Z,40.90
2022-10-19T18:39:27.773Z,40.90
2022-10-19T18:44:47.864Z,40.50
2022-10-19T18:50:08.233Z,40.50
2022-10-19T18:55:28.560Z,40.50
2022-10-19T19:00:48.671Z,40.80
2022-10-19T19:06:08.818Z,40.80
2022-10-19T19:11:30.656Z,40.90
2022-10-19T19:16:53.336Z,41.00
2022-10-19T19:22:13.389Z,40.50
2022-10-19T19:27:33.750Z,40.60
2022-10-19T19:32:53.806Z,40.70
2022-10-19T19:38:13.977Z,40.80
2022-10-19T19:43:34.116Z,40.70
2022-10-19T19:48:54.322Z,40.80
2022-10-19T19:54:14.533Z,40.70
2022-10-19T19:59:34.716Z,40.80
2022-10-19T20:04:54.917Z,40.30
2022-10-19T20:10:15.143Z,40.20
2022-10-19T20:15:35.371Z,40.40
2022-10-19T20:20:55.534Z,40.60
2022-10-19T20:26:15.635Z,40.80
2022-10-19T20:31:35.910Z,41.00
2022-10-19T20:36:56.225Z,41.20
2022-10-19T20:42:16.396Z,41.30
2022-10-19T20:47:36.536Z,41.50
2022-10-19T20:52:56.549Z,41.60
2022-10-19T20:58:16.608Z,41.70
2022-10-19T21:03:36.777Z,41.80
2022-10-19T21:08:57.036Z,41.90
2022-10-19T21:14:17.153Z,41.90
2022-10-19T21:19:37.271Z,42.00
2022-10-19T21:24:57.340Z,42.00
2022-10-19T21:30:17.396Z,42.10
2022-10-19T21:35:37.510Z,42.10
2022-10-19T21:40:57.601Z,42.10
2022-10-19T21:46:17.664Z,42.20
2022-10-19T21:51:37.997Z,42.20
2022-10-19T21:56:58.026Z,42.20
2022-10-19T22:02:18.277Z,42.00
2022-10-19T22:07:38.527Z,42.00
2022-10-19T22:12:58.684Z,41.90
2022-10-19T22:18:18.978Z,41.90
2022-10-19T22:23:39.157Z,41.90
2022-10-19T22:28:59.189Z,41.80
2022-10-19T22:34:19.568Z,41.80
2022-10-19T22:44:59.787Z,41.70
2022-10-19T22:50:19.845Z,41.70
2022-10-19T22:55:40.029Z,41.70
2022-10-19T23:01:00.077Z,42.30
2022-10-19T23:06:20.175Z,41.70
2022-10-19T23:11:40.493Z,41.60
2022-10-19T23:17:00.669Z,41.60
2022-10-19T23:22:20.776Z,41.60
2022-10-19T23:27:40.947Z,41.60
2022-10-19T23:33:01.001Z,41.60
2022-10-19T23:38:21.128Z,41.60
2022-10-19T23:43:41.230Z,41.60
2022-10-19T23:49:01.584Z,41.70
2022-10-19T23:54:21.726Z,41.70
2022-10-19T23:59:41.960Z,41.60
